Аэропорт: Нахичевань. Нахичевань

ICAO: UBBN

METAR:
2019-07-23 18:30:00
UBBN 231830Z 12016KT 9999 SCT050 BKN100 32/12 Q1004 R14R/CLRD// NOSIG RMK MT OP QFE679
METAR:
2019-07-23 17:12:00
TAF UBBN 231712Z 2318/2418 08012KT 9999 FEW050 SCT100 TX40/2412Z TN24/2402Z TEMPO 2318/2404 14018G28KT TEMPO 2404/2414 VRB04KT